createdAt,value
2018-02-21T00:00:54.101Z,85.34
2018-02-21T00:02:21.112Z,85.47
2018-02-21T00:03:47.949Z,85.39
2018-02-21T00:05:14.819Z,85.10
2018-02-21T00:06:41.911Z,84.42
2018-02-21T00:08:09.302Z,83.64
2018-02-21T00:09:35.917Z,83.26
2018-02-21T00:10:59.204Z,82.94
2018-02-21T00:12:29.639Z,82.72
2018-02-21T00:13:56.496Z,82.38
2018-02-21T00:15:23.537Z,82.37
2018-02-21T00:16:50.817Z,81.95
2018-02-21T00:18:13.897Z,81.83
2018-02-21T00:19:40.890Z,82.08
2018-02-21T00:21:11.395Z,82.27
2018-02-21T00:22:38.335Z,81.92
2018-02-21T00:24:01.418Z,81.73
2018-02-21T00:25:32.266Z,82.07
2018-02-21T00:26:59.257Z,82.09
2018-02-21T00:28:25.801Z,82.11
2018-02-21T00:29:48.787Z,81.99
2018-02-21T00:31:19.974Z,82.04
2018-02-21T00:32:46.981Z,81.81
2018-02-21T00:34:14.104Z,82.00
2018-02-21T00:35:37.340Z,82.01
2018-02-21T00:37:08.205Z,81.81
2018-02-21T00:38:30.944Z,81.68
2018-02-21T00:39:58.084Z,81.86
2018-02-21T00:41:29.073Z,81.69
2018-02-21T00:42:56.343Z,81.68
2018-02-21T00:44:23.037Z,81.81
2018-02-21T00:45:50.082Z,81.71
2018-02-21T00:47:12.741Z,81.45
2018-02-21T00:48:43.875Z,81.56
2018-02-21T00:50:06.986Z,81.62
2018-02-21T00:51:34.201Z,81.43
2018-02-21T00:53:05.230Z,81.79
2018-02-21T00:54:28.435Z,81.62
2018-02-21T00:55:54.866Z,81.63
2018-02-21T00:57:22.166Z,81.76
2018-02-21T00:58:48.997Z,81.72
2018-02-21T01:00:19.844Z,81.78
2018-02-21T01:01:42.839Z,81.55
2018-02-21T01:03:13.922Z,81.54
2018-02-21T01:04:40.992Z,81.28
2018-02-21T01:06:07.770Z,81.44
2018-02-21T01:07:30.991Z,81.62
2018-02-21T01:08:58.102Z,81.70
2018-02-21T01:10:28.776Z,81.48
2018-02-21T01:11:55.834Z,81.55
2018-02-21T01:13:19.139Z,81.68
2018-02-21T01:14:50.408Z,81.41
2018-02-21T01:16:17.348Z,81.32
2018-02-21T01:17:44.016Z,81.17
2018-02-21T01:19:06.687Z,81.19
2018-02-21T01:20:33.888Z,80.88
2018-02-21T01:22:00.745Z,80.84
2018-02-21T01:23:27.520Z,80.72
2018-02-21T01:24:54.637Z,80.71
2018-02-21T01:26:21.848Z,80.94
2018-02-21T01:27:48.993Z,80.90
2018-02-21T01:29:15.395Z,80.72
2018-02-21T01:30:42.246Z,80.98
2018-02-21T01:32:13.420Z,81.16
2018-02-21T01:33:40.572Z,81.17
2018-02-21T01:35:03.239Z,81.13
2018-02-21T01:36:34.385Z,81.01
2018-02-21T01:38:01.556Z,80.99
2018-02-21T01:39:28.748Z,80.58
2018-02-21T01:40:54.951Z,80.62
2018-02-21T01:42:21.342Z,80.19
2018-02-21T01:43:48.147Z,79.97
2018-02-21T01:45:11.357Z,80.15
2018-02-21T01:46:37.802Z,80.41
2018-02-21T01:48:04.903Z,80.71
2018-02-21T01:49:35.903Z,80.97
2018-02-21T01:51:02.969Z,81.06
2018-02-21T01:52:25.960Z,81.05
2018-02-21T01:53:53.152Z,80.91
2018-02-21T01:55:24.156Z,80.87
2018-02-21T01:56:47.380Z,81.04
2018-02-21T01:58:18.463Z,80.97
2018-02-21T01:59:41.835Z,80.92
2018-02-21T02:01:08.989Z,81.09
2018-02-21T02:02:36.236Z,81.26
2018-02-21T02:04:03.376Z,81.44
2018-02-21T02:05:34.284Z,81.36
2018-02-21T02:07:01.361Z,81.50
2018-02-21T02:08:28.483Z,81.53
2018-02-21T02:09:55.723Z,81.42
2018-02-21T02:11:22.749Z,81.36
2018-02-21T02:12:49.882Z,81.55
2018-02-21T02:14:13.012Z,82.13
2018-02-21T02:15:43.914Z,82.40
2018-02-21T02:17:10.224Z,82.65
2018-02-21T02:18:33.371Z,82.36
2018-02-21T02:20:00.523Z,82.29
2018-02-21T02:21:27.346Z,82.38
2018-02-21T02:22:54.424Z,82.36
2018-02-21T02:24:21.441Z,82.02
2018-02-21T02:25:51.892Z,82.12
2018-02-21T02:27:15.131Z,82.03
2018-02-21T02:28:42.247Z,82.17
2018-02-21T02:30:13.467Z,82.02
2018-02-21T02:31:40.579Z,82.00
2018-02-21T02:33:06.880Z,82.00
2018-02-21T02:34:34.105Z,81.91
2018-02-21T02:36:00.661Z,81.94
2018-02-21T02:37:23.181Z,81.87
2018-02-21T02:38:50.451Z,82.21
2018-02-21T02:40:17.982Z,81.83
2018-02-21T02:41:48.652Z,82.26
2018-02-21T02:43:11.901Z,82.16
2018-02-21T02:44:42.802Z,82.33
2018-02-21T02:46:10.131Z,82.32
2018-02-21T02:47:36.902Z,81.80
2018-02-21T02:49:04.064Z,81.87
2018-02-21T02:50:31.188Z,81.77
2018-02-21T02:51:58.320Z,81.91
2018-02-21T02:53:25.531Z,81.48
2018-02-21T02:54:52.130Z,81.02
2018-02-21T02:56:15.306Z,80.65
2018-02-21T02:57:46.542Z,80.47
2018-02-21T02:59:09.705Z,81.08
2018-02-21T03:00:36.838Z,81.46
2018-02-21T03:02:03.926Z,80.88
2018-02-21T03:03:30.995Z,80.56
2018-02-21T03:04:57.764Z,80.50
2018-02-21T03:06:28.798Z,80.48
2018-02-21T03:07:52.098Z,80.60
2018-02-21T03:09:18.460Z,80.56
2018-02-21T03:10:49.504Z,82.07
2018-02-21T03:12:16.849Z,81.84
2018-02-21T03:13:39.909Z,81.72
2018-02-21T03:15:10.545Z,81.86
2018-02-21T03:16:33.689Z,82.08
2018-02-21T03:18:04.750Z,81.96
2018-02-21T03:19:31.835Z,81.83
2018-02-21T03:20:54.715Z,82.34
2018-02-21T03:22:25.929Z,82.42
2018-02-21T03:23:52.184Z,82.54
2018-02-21T03:25:19.484Z,82.31
2018-02-21T03:26:42.592Z,82.28
2018-02-21T03:28:13.015Z,82.87
2018-02-21T03:29:40.036Z,82.83
2018-02-21T03:31:03.264Z,82.91
2018-02-21T03:32:34.494Z,82.40
2018-02-21T03:33:56.917Z,82.49
2018-02-21T03:35:23.565Z,82.39
2018-02-21T03:36:53.977Z,82.76
2018-02-21T03:38:21.213Z,82.80
2018-02-21T03:39:47.651Z,83.10
2018-02-21T03:41:14.156Z,83.19
2018-02-21T03:42:41.084Z,82.93
2018-02-21T03:44:04.429Z,83.14
2018-02-21T03:45:35.591Z,83.01
2018-02-21T03:47:02.716Z,83.13
2018-02-21T03:48:29.721Z,83.41
2018-02-21T03:49:56.822Z,83.51
2018-02-21T03:51:20.056Z,83.71
2018-02-21T03:52:50.745Z,83.73
2018-02-21T03:54:13.759Z,83.67
2018-02-21T03:55:44.379Z,83.61
2018-02-21T03:57:11.385Z,83.72
2018-02-21T03:58:34.656Z,83.78
2018-02-21T04:00:05.391Z,83.93
2018-02-21T04:01:28.528Z,83.94
2018-02-21T04:02:59.448Z,84.14
2018-02-21T04:04:26.447Z,84.16
2018-02-21T04:05:53.177Z,84.08
2018-02-21T04:07:20.307Z,83.79
2018-02-21T04:08:47.419Z,84.03
2018-02-21T04:10:10.461Z,83.91
2018-02-21T04:11:41.580Z,83.88
2018-02-21T04:13:04.826Z,83.68
2018-02-21T04:14:35.816Z,83.65
2018-02-21T04:16:03.026Z,83.69
2018-02-21T04:17:29.572Z,84.13
2018-02-21T04:18:56.845Z,83.59
2018-02-21T04:20:19.857Z,83.16
2018-02-21T04:21:50.780Z,82.65
2018-02-21T04:23:18.059Z,82.74
2018-02-21T04:24:45.469Z,82.96
2018-02-21T04:26:12.635Z,82.85
2018-02-21T04:27:39.719Z,82.27
2018-02-21T04:29:02.580Z,81.98
2018-02-21T04:30:33.793Z,81.58
2018-02-21T04:31:56.750Z,81.73
2018-02-21T04:33:27.250Z,82.01
2018-02-21T04:34:54.330Z,82.49
2018-02-21T04:36:17.529Z,82.08
2018-02-21T04:37:44.617Z,81.86
2018-02-21T04:39:15.460Z,81.99
2018-02-21T04:40:42.570Z,81.95
2018-02-21T04:42:09.474Z,81.73
2018-02-21T04:43:36.496Z,81.67
2018-02-21T04:44:59.691Z,81.47
2018-02-21T04:46:29.908Z,81.47
2018-02-21T04:47:53.154Z,81.32
2018-02-21T04:49:23.781Z,81.31
2018-02-21T04:50:50.373Z,81.20
2018-02-21T04:52:12.916Z,81.42
2018-02-21T04:53:43.896Z,81.20
2018-02-21T04:55:11.082Z,81.55
2018-02-21T04:56:38.213Z,81.43
2018-02-21T04:58:01.271Z,81.46
2018-02-21T04:59:31.875Z,81.67
2018-02-21T05:00:59.139Z,80.88
2018-02-21T05:02:21.555Z,80.95
2018-02-21T05:03:52.585Z,81.66
2018-02-21T05:05:15.812Z,81.11
2018-02-21T05:06:43.113Z,81.23
2018-02-21T05:08:14.090Z,81.61
2018-02-21T05:09:37.355Z,81.49
2018-02-21T05:11:08.442Z,80.73
2018-02-21T05:12:35.463Z,80.75
2018-02-21T05:14:02.413Z,80.97
2018-02-21T05:15:25.466Z,80.59
2018-02-21T05:16:56.079Z,80.44
2018-02-21T05:18:23.237Z,80.28
2018-02-21T05:19:46.309Z,80.14
2018-02-21T05:21:12.906Z,80.22
2018-02-21T05:22:40.088Z,80.57
2018-02-21T05:24:06.993Z,80.51
2018-02-21T05:25:38.089Z,80.06
2018-02-21T05:27:00.933Z,79.98
2018-02-21T05:28:27.562Z,79.95
2018-02-21T05:29:54.607Z,80.37
2018-02-21T05:31:21.746Z,80.25
2018-02-21T05:32:52.782Z,80.00
2018-02-21T05:34:20.051Z,79.84
2018-02-21T05:35:47.116Z,79.58
2018-02-21T05:37:14.072Z,79.71
2018-02-21T05:38:36.757Z,79.83
2018-02-21T05:40:07.976Z,79.82
2018-02-21T05:41:34.781Z,80.02
2018-02-21T05:43:01.922Z,80.06
2018-02-21T05:44:24.941Z,79.93
2018-02-21T05:45:56.223Z,79.64
2018-02-21T05:47:22.968Z,79.88
2018-02-21T05:48:46.030Z,79.73
2018-02-21T05:50:17.264Z,79.63
2018-02-21T05:51:40.194Z,79.59
2018-02-21T05:53:10.837Z,80.09
2018-02-21T05:54:37.969Z,80.22
2018-02-21T05:56:01.229Z,80.28
2018-02-21T05:57:32.238Z,80.62
2018-02-21T05:58:59.101Z,80.37
2018-02-21T06:00:21.725Z,79.85
2018-02-21T06:01:52.964Z,79.69
2018-02-21T06:03:19.998Z,80.14
2018-02-21T06:04:42.958Z,80.16
2018-02-21T06:06:10.152Z,80.18
2018-02-21T06:07:37.332Z,80.13
2018-02-21T06:09:04.571Z,79.87
2018-02-21T06:10:31.093Z,79.90
2018-02-21T06:12:01.972Z,79.69
2018-02-21T06:13:25.239Z,79.37
2018-02-21T06:14:56.223Z,79.35
2018-02-21T06:16:19.426Z,79.29
2018-02-21T06:17:50.622Z,79.14
2018-02-21T06:19:21.673Z,79.00
2018-02-21T06:20:40.751Z,79.04
2018-02-21T06:22:11.868Z,79.15
2018-02-21T06:23:34.933Z,79.44
2018-02-21T06:25:05.895Z,79.82
2018-02-21T06:26:32.695Z,80.02
2018-02-21T06:27:55.713Z,80.25
2018-02-21T06:29:26.247Z,80.74
2018-02-21T06:30:53.341Z,80.74
2018-02-21T06:32:20.264Z,80.75
2018-02-21T06:33:43.304Z,80.56
2018-02-21T06:35:10.353Z,80.56
2018-02-21T06:36:41.611Z,80.73
2018-02-21T06:38:08.105Z,80.84
2018-02-21T06:39:35.310Z,80.71
2018-02-21T06:41:02.278Z,80.82
2018-02-21T06:42:29.578Z,80.77
2018-02-21T06:43:52.694Z,80.81
2018-02-21T06:45:23.343Z,80.92
2018-02-21T06:46:46.554Z,81.22
2018-02-21T06:48:17.072Z,81.27
2018-02-21T06:49:44.295Z,81.28
2018-02-21T06:51:11.297Z,81.25
2018-02-21T06:52:33.922Z,80.95
2018-02-21T06:54:04.988Z,80.88
2018-02-21T06:55:27.983Z,81.09
2018-02-21T06:56:58.992Z,81.02
2018-02-21T06:58:21.917Z,81.17
2018-02-21T06:59:52.619Z,81.33
2018-02-21T07:01:19.877Z,81.22
2018-02-21T07:02:47.094Z,81.17
2018-02-21T07:04:09.315Z,81.30
2018-02-21T07:05:40.076Z,81.14
2018-02-21T07:07:06.894Z,81.29
2018-02-21T07:08:29.666Z,81.57
2018-02-21T07:10:00.648Z,81.86
2018-02-21T07:11:27.245Z,81.91
2018-02-21T07:12:50.284Z,82.22
2018-02-21T07:14:21.543Z,82.31
2018-02-21T07:15:48.224Z,82.27
2018-02-21T07:17:15.478Z,82.10
2018-02-21T07:18:42.541Z,82.10
2018-02-21T07:20:09.767Z,82.24
2018-02-21T07:21:32.842Z,82.50
2018-02-21T07:23:03.872Z,82.17
2018-02-21T07:24:30.994Z,82.25
2018-02-21T07:25:54.092Z,82.62
2018-02-21T07:27:25.191Z,83.11
2018-02-21T07:28:52.351Z,83.24
2018-02-21T07:30:19.448Z,83.07
2018-02-21T07:31:46.599Z,82.94
2018-02-21T07:33:13.749Z,83.16
2018-02-21T07:34:36.883Z,82.94
2018-02-21T07:36:07.902Z,82.73
2018-02-21T07:37:34.824Z,83.04
2018-02-21T07:38:57.612Z,83.39
2018-02-21T07:40:24.841Z,83.42
2018-02-21T07:41:55.886Z,83.39
2018-02-21T07:43:18.957Z,83.59
2018-02-21T07:44:46.004Z,83.70
2018-02-21T07:46:16.994Z,84.13
2018-02-21T07:47:44.271Z,84.13
2018-02-21T07:49:07.101Z,84.13
2018-02-21T07:50:38.151Z,84.44
2018-02-21T07:52:04.559Z,84.47
2018-02-21T07:53:31.593Z,84.78
2018-02-21T07:54:54.605Z,85.06
2018-02-21T07:56:25.564Z,85.47
2018-02-21T07:57:48.714Z,86.00
2018-02-21T07:59:19.795Z,86.50
2018-02-21T08:00:42.955Z,87.00
2018-02-21T08:02:13.960Z,87.43
2018-02-21T08:03:41.141Z,87.92
2018-02-21T08:05:03.977Z,88.27
2018-02-21T08:06:31.050Z,88.55
2018-02-21T08:08:02.055Z,88.29
2018-02-21T08:09:29.190Z,88.10
2018-02-21T08:10:55.780Z,88.23
2018-02-21T08:12:18.843Z,88.50
2018-02-21T08:13:49.791Z,88.56
2018-02-21T08:15:16.486Z,88.76
2018-02-21T08:16:43.491Z,88.63
2018-02-21T08:18:06.253Z,88.69
2018-02-21T08:19:37.423Z,88.31
2018-02-21T08:21:00.614Z,88.03
2018-02-21T08:22:31.542Z,87.85
2018-02-21T08:23:58.402Z,88.15
2018-02-21T08:25:25.654Z,87.61
2018-02-21T08:26:48.323Z,87.58
2018-02-21T08:28:19.479Z,87.75
2018-02-21T08:29:46.534Z,87.47
2018-02-21T08:31:09.690Z,87.09
2018-02-21T08:32:40.776Z,87.20
2018-02-21T08:34:04.143Z,87.24
2018-02-21T08:35:31.164Z,86.80
2018-02-21T08:37:01.984Z,86.96
2018-02-21T08:38:25.079Z,87.25
2018-02-21T08:39:56.035Z,87.25
2018-02-21T08:41:19.194Z,87.46
2018-02-21T08:42:50.349Z,87.44
2018-02-21T08:44:17.363Z,87.53
2018-02-21T08:45:40.547Z,87.11
2018-02-21T08:47:11.782Z,87.12
2018-02-21T08:48:38.754Z,87.11
2018-02-21T08:50:05.806Z,86.37
2018-02-21T08:51:29.082Z,86.58
2018-02-21T08:52:56.014Z,86.47
2018-02-21T08:54:27.126Z,86.06
2018-02-21T08:55:54.213Z,86.14
2018-02-21T08:57:20.690Z,85.95
2018-02-21T08:58:47.482Z,85.73
2018-02-21T09:00:10.609Z,85.98
2018-02-21T09:01:36.918Z,85.77
2018-02-21T09:03:07.592Z,85.75
2018-02-21T09:04:34.348Z,85.40
2018-02-21T09:06:01.443Z,85.12
2018-02-21T09:07:28.578Z,84.40
2018-02-21T09:08:51.961Z,84.67
2018-02-21T09:10:23.186Z,84.42
2018-02-21T09:11:50.312Z,84.83
2018-02-21T09:13:17.334Z,84.50
2018-02-21T09:14:40.638Z,84.24
2018-02-21T09:16:11.787Z,84.42
2018-02-21T09:17:34.796Z,84.01
2018-02-21T09:19:05.890Z,84.16
2018-02-21T09:20:32.885Z,83.97
2018-02-21T09:21:55.601Z,82.99
2018-02-21T09:23:26.940Z,83.18
2018-02-21T09:24:54.190Z,82.86
2018-02-21T09:26:17.592Z,83.25
2018-02-21T09:27:44.661Z,82.96
2018-02-21T09:29:11.949Z,83.15
2018-02-21T09:30:43.218Z,82.51
2018-02-21T09:32:10.225Z,81.81
2018-02-21T09:33:33.015Z,80.96
2018-02-21T09:35:00.165Z,81.14
2018-02-21T09:36:31.202Z,79.84
2018-02-21T09:37:58.382Z,81.16
2018-02-21T09:39:25.668Z,81.06
2018-02-21T09:40:49.012Z,79.80
2018-02-21T09:42:16.351Z,79.83
2018-02-21T09:43:43.374Z,80.19
2018-02-21T09:45:10.577Z,80.32
2018-02-21T09:46:41.583Z,79.63
2018-02-21T09:48:07.981Z,79.37
2018-02-21T09:49:34.716Z,78.57
2018-02-21T09:51:01.734Z,77.49
2018-02-21T09:52:28.825Z,77.75
2018-02-21T09:53:55.739Z,78.38
2018-02-21T09:55:22.874Z,78.23
2018-02-21T09:56:49.937Z,79.20
2018-02-21T09:58:17.121Z,78.60
2018-02-21T09:59:44.504Z,78.00
2018-02-21T10:01:11.794Z,77.79
2018-02-21T10:02:39.037Z,76.35
2018-02-21T10:04:06.332Z,77.13
2018-02-21T10:05:33.294Z,75.59
2018-02-21T10:07:00.529Z,75.62
2018-02-21T10:08:23.575Z,73.74
2018-02-21T10:09:54.675Z,75.43
2018-02-21T10:11:17.749Z,73.68
2018-02-21T10:12:49.268Z,73.80
2018-02-21T10:14:12.570Z,74.19
2018-02-21T10:15:43.884Z,71.84
2018-02-21T10:17:07.084Z,72.60
2018-02-21T10:18:34.375Z,72.96
2018-02-21T10:20:05.574Z,73.16
2018-02-21T10:21:32.858Z,73.02
2018-02-21T10:22:59.863Z,73.67
2018-02-21T10:24:27.175Z,71.51
2018-02-21T10:25:50.278Z,72.73
2018-02-21T10:27:17.578Z,72.36
2018-02-21T10:28:44.815Z,69.92
2018-02-21T10:30:11.884Z,71.66
2018-02-21T10:31:43.205Z,72.49
2018-02-21T10:33:10.479Z,72.45
2018-02-21T10:34:37.672Z,72.94
2018-02-21T10:36:01.000Z,71.69
2018-02-21T10:37:27.858Z,70.88
2018-02-21T10:38:55.017Z,71.73
2018-02-21T10:40:22.286Z,72.05
2018-02-21T10:41:53.446Z,72.23
2018-02-21T10:43:20.674Z,71.11
2018-02-21T10:44:48.037Z,70.51
2018-02-21T10:46:11.352Z,71.88
2018-02-21T10:47:38.527Z,72.47
2018-02-21T10:49:09.749Z,71.07
2018-02-21T10:50:32.893Z,71.03
2018-02-21T10:51:59.828Z,70.66
2018-02-21T10:53:26.760Z,71.26
2018-02-21T10:54:57.459Z,71.33
2018-02-21T10:56:20.260Z,71.70
2018-02-21T10:57:51.314Z,72.07
2018-02-21T10:59:14.386Z,71.60
2018-02-21T11:00:45.543Z,72.52
2018-02-21T11:02:08.510Z,72.61
2018-02-21T11:03:35.707Z,72.38
2018-02-21T11:05:02.919Z,72.92
2018-02-21T11:06:33.933Z,73.69
2018-02-21T11:07:56.812Z,73.68
2018-02-21T11:09:28.092Z,72.81
2018-02-21T11:10:51.483Z,74.08
2018-02-21T11:12:22.566Z,74.02
2018-02-21T11:13:45.376Z,73.72
2018-02-21T11:15:11.971Z,74.00
2018-02-21T11:16:39.312Z,73.38
2018-02-21T11:18:10.467Z,74.42
2018-02-21T11:19:37.409Z,74.06
2018-02-21T11:21:04.540Z,74.50
2018-02-21T11:22:27.890Z,74.22
2018-02-21T11:23:54.836Z,74.09
2018-02-21T11:25:25.664Z,73.79
2018-02-21T11:26:48.490Z,74.43
2018-02-21T11:28:15.469Z,73.39
2018-02-21T11:29:42.559Z,73.50
2018-02-21T11:31:09.871Z,73.21
2018-02-21T11:32:37.105Z,72.89
2018-02-21T11:34:08.296Z,72.81
2018-02-21T11:35:35.537Z,72.53
2018-02-21T11:36:58.699Z,72.79
2018-02-21T11:38:29.673Z,73.46
2018-02-21T11:39:52.406Z,73.81
2018-02-21T11:41:19.546Z,74.83
2018-02-21T11:42:50.820Z,74.48
2018-02-21T11:44:14.092Z,74.67
2018-02-21T11:45:41.454Z,74.93
2018-02-21T11:47:12.736Z,74.85
2018-02-21T11:48:35.823Z,76.37
2018-02-21T11:50:03.165Z,76.03
2018-02-21T11:51:34.243Z,76.69
2018-02-21T11:52:57.460Z,76.52
2018-02-21T11:54:24.794Z,75.45
2018-02-21T11:55:51.662Z,74.88
2018-02-21T11:57:18.822Z,75.56
2018-02-21T11:58:45.667Z,75.87
2018-02-21T12:00:16.738Z,75.84
2018-02-21T12:01:40.029Z,75.48
2018-02-21T12:03:10.915Z,75.82
2018-02-21T12:04:34.080Z,74.76
2018-02-21T12:06:00.999Z,74.45
2018-02-21T12:07:32.072Z,74.90
2018-02-21T12:08:59.420Z,74.86
2018-02-21T12:10:26.481Z,74.97
2018-02-21T12:11:53.592Z,75.31
2018-02-21T12:13:20.305Z,75.22
2018-02-21T12:14:43.267Z,75.60
2018-02-21T12:16:10.571Z,74.50
2018-02-21T12:17:37.652Z,75.02
2018-02-21T12:19:04.524Z,75.06
2018-02-21T12:20:35.145Z,75.43
2018-02-21T12:21:58.086Z,74.46
2018-02-21T12:23:29.402Z,74.49
2018-02-21T12:24:56.620Z,74.71
2018-02-21T12:26:19.911Z,74.68
2018-02-21T12:27:50.666Z,74.59
2018-02-21T12:29:18.006Z,75.06
2018-02-21T12:30:45.263Z,74.95
2018-02-21T12:32:08.506Z,74.52
2018-02-21T12:33:39.707Z,74.27
2018-02-21T12:35:02.984Z,74.15
2018-02-21T12:36:34.016Z,74.16
2018-02-21T12:37:56.767Z,74.70
2018-02-21T12:39:23.702Z,74.28
2018-02-21T12:40:50.968Z,74.19
2018-02-21T12:42:18.270Z,73.48
2018-02-21T12:43:45.499Z,73.85
2018-02-21T12:45:16.699Z,73.65
2018-02-21T12:46:39.585Z,72.97
2018-02-21T12:48:10.817Z,73.12
2018-02-21T12:49:38.046Z,73.46
2018-02-21T12:51:00.954Z,73.57
2018-02-21T12:52:31.920Z,72.61
2018-02-21T12:53:59.150Z,72.68
2018-02-21T12:55:26.015Z,73.03
2018-02-21T12:56:49.164Z,73.04
2018-02-21T12:58:20.393Z,73.13
2018-02-21T12:59:43.662Z,73.22
2018-02-21T13:01:10.713Z,73.21
2018-02-21T13:02:37.927Z,71.45
2018-02-21T13:04:08.972Z,71.12
2018-02-21T13:05:36.334Z,72.36
2018-02-21T13:06:59.471Z,73.17
2018-02-21T13:08:30.076Z,72.58
2018-02-21T13:09:53.312Z,72.29
2018-02-21T13:11:24.379Z,72.38
2018-02-21T13:12:47.670Z,71.65
2018-02-21T13:14:18.942Z,72.14
2018-02-21T13:15:46.191Z,72.57
2018-02-21T13:17:13.152Z,73.22
2018-02-21T13:18:36.266Z,73.03
2018-02-21T13:20:03.451Z,73.99
2018-02-21T13:21:30.649Z,74.07
2018-02-21T13:22:57.992Z,74.61
2018-02-21T13:24:25.074Z,75.70
2018-02-21T13:25:52.417Z,75.57
2018-02-21T13:27:23.526Z,75.63
2018-02-21T13:28:50.355Z,76.89
2018-02-21T13:30:13.652Z,77.06
2018-02-21T13:31:40.804Z,77.50
2018-02-21T13:33:12.168Z,78.28
2018-02-21T13:34:39.361Z,79.30
2018-02-21T13:36:02.455Z,78.69
2018-02-21T13:37:33.563Z,79.09
2018-02-21T13:38:56.432Z,79.38
2018-02-21T13:40:23.722Z,80.11
2018-02-21T13:41:54.609Z,80.37
2018-02-21T13:43:17.623Z,81.02
2018-02-21T13:44:44.310Z,81.75
2018-02-21T13:46:11.582Z,82.78
2018-02-21T13:47:38.321Z,83.12
2018-02-21T13:49:05.028Z,83.33
2018-02-21T13:50:32.253Z,84.23
2018-02-21T13:52:03.062Z,84.72
2018-02-21T13:53:30.792Z,85.00
2018-02-21T13:54:56.335Z,85.80
2018-02-21T13:56:23.259Z,86.17
2018-02-21T13:57:46.496Z,86.64
2018-02-21T13:59:17.401Z,86.91
2018-02-21T14:00:44.580Z,87.12
2018-02-21T14:02:11.402Z,87.18
2018-02-21T14:03:34.682Z,87.26
2018-02-21T14:05:01.833Z,86.78
2018-02-21T14:06:28.893Z,86.40
2018-02-21T14:07:59.593Z,86.41
2018-02-21T14:09:26.802Z,85.65
2018-02-21T14:10:53.616Z,85.69
2018-02-21T14:12:20.144Z,86.25
2018-02-21T14:13:46.844Z,86.23
2018-02-21T14:15:10.059Z,86.43
2018-02-21T14:16:37.364Z,86.58
2018-02-21T14:18:04.542Z,86.29
2018-02-21T14:19:35.820Z,86.22
2018-02-21T14:21:02.955Z,85.80
2018-02-21T14:22:25.911Z,85.26
2018-02-21T14:23:53.013Z,84.68
2018-02-21T14:25:24.129Z,84.46
2018-02-21T14:26:51.397Z,84.24
2018-02-21T14:28:18.641Z,84.05
2018-02-21T14:29:41.813Z,83.80
2018-02-21T14:31:13.097Z,84.68
2018-02-21T14:32:40.089Z,85.22
2018-02-21T14:34:07.271Z,84.38
2018-02-21T14:35:34.208Z,84.48
2018-02-21T14:37:01.265Z,84.49
2018-02-21T14:38:28.273Z,83.16
2018-02-21T14:39:51.225Z,82.18
2018-02-21T14:41:22.528Z,81.01
2018-02-21T14:42:49.249Z,80.75
2018-02-21T14:44:12.128Z,81.26
2018-02-21T14:45:43.460Z,81.04
2018-02-21T14:47:10.582Z,82.14
2018-02-21T14:48:37.741Z,82.09
2018-02-21T14:50:04.991Z,81.77
2018-02-21T14:51:28.125Z,81.30
2018-02-21T14:52:59.385Z,81.04
2018-02-21T14:54:22.430Z,80.68
2018-02-21T14:55:53.733Z,81.43
2018-02-21T14:57:21.055Z,81.92
2018-02-21T14:58:47.682Z,82.22
2018-02-21T15:00:10.958Z,82.06
2018-02-21T15:01:37.329Z,82.24
2018-02-21T15:03:08.508Z,83.11
2018-02-21T15:04:35.580Z,83.29
2018-02-21T15:05:58.682Z,83.84
2018-02-21T15:07:29.684Z,83.52
2018-02-21T15:08:52.764Z,83.33
2018-02-21T15:10:19.911Z,83.41
2018-02-21T15:11:47.222Z,83.68
2018-02-21T15:13:18.466Z,83.78
2018-02-21T15:14:41.689Z,83.61
2018-02-21T15:16:13.002Z,83.15
2018-02-21T15:17:40.076Z,83.17
2018-02-21T15:19:02.979Z,83.12
2018-02-21T15:20:34.193Z,82.94
2018-02-21T15:21:57.404Z,82.73
2018-02-21T15:23:28.528Z,82.88
2018-02-21T15:24:51.814Z,82.86
2018-02-21T15:26:23.086Z,82.59
2018-02-21T15:27:46.398Z,82.61
2018-02-21T15:29:13.767Z,82.92
2018-02-21T15:30:40.830Z,82.77
2018-02-21T15:32:08.053Z,82.79
2018-02-21T15:33:35.348Z,82.96
2018-02-21T15:35:06.409Z,82.61
2018-02-21T15:36:33.232Z,82.48
2018-02-21T15:37:56.282Z,82.92
2018-02-21T15:39:23.251Z,83.17
2018-02-21T15:40:54.565Z,83.02
2018-02-21T15:42:17.838Z,82.86
2018-02-21T15:43:48.887Z,82.99
2018-02-21T15:45:12.186Z,83.27
2018-02-21T15:46:39.237Z,83.36
2018-02-21T15:48:06.347Z,83.39
2018-02-21T15:49:32.950Z,83.34
2018-02-21T15:51:00.169Z,83.34
2018-02-21T15:52:26.704Z,83.43
2018-02-21T15:53:57.941Z,83.27
2018-02-21T15:55:25.155Z,83.17
2018-02-21T15:56:48.310Z,83.22
2018-02-21T15:58:15.652Z,83.15
2018-02-21T15:59:47.011Z,82.84
2018-02-21T16:01:10.183Z,82.89
2018-02-21T16:02:37.153Z,82.77
2018-02-21T16:04:04.435Z,82.91
2018-02-21T16:05:31.282Z,82.84
2018-02-21T16:07:02.158Z,82.85
2018-02-21T16:08:24.927Z,82.89
2018-02-21T16:09:52.045Z,82.99
2018-02-21T16:11:18.814Z,82.90
2018-02-21T16:12:49.890Z,82.79
2018-02-21T16:14:13.004Z,82.62
2018-02-21T16:15:44.077Z,82.68
2018-02-21T16:17:07.245Z,82.62
2018-02-21T16:18:38.307Z,82.72
2018-02-21T16:20:04.956Z,82.89
2018-02-21T16:21:32.864Z,82.99
2018-02-21T16:22:54.653Z,82.93
2018-02-21T16:24:21.860Z,82.80
2018-02-21T16:25:49.202Z,82.83
2018-02-21T16:27:15.911Z,83.20
2018-02-21T16:28:47.058Z,83.28
2018-02-21T16:30:10.201Z,83.61
2018-02-21T16:31:37.451Z,83.35
2018-02-21T16:33:08.438Z,83.32
2018-02-21T16:34:31.512Z,83.18
2018-02-21T16:35:58.692Z,82.97
2018-02-21T16:37:25.687Z,82.86
2018-02-21T16:38:56.808Z,82.74
2018-02-21T16:40:24.060Z,82.74
2018-02-21T16:41:47.325Z,82.65
2018-02-21T16:43:13.722Z,82.85
2018-02-21T16:44:40.804Z,83.04
2018-02-21T16:46:07.982Z,83.38
2018-02-21T16:47:35.193Z,83.10
2018-02-21T16:49:02.115Z,83.45
2018-02-21T16:50:33.253Z,83.56
2018-02-21T16:51:59.624Z,83.11
2018-02-21T16:53:22.765Z,83.40
2018-02-21T16:54:48.989Z,83.40
2018-02-21T16:56:20.290Z,83.52
2018-02-21T16:57:43.467Z,83.24
2018-02-21T16:59:10.111Z,83.02
2018-02-21T17:00:36.493Z,82.84
2018-02-21T17:02:03.668Z,82.72
2018-02-21T17:03:30.137Z,82.55
2018-02-21T17:05:01.277Z,82.63
2018-02-21T17:06:24.568Z,82.60
2018-02-21T17:07:54.915Z,82.78
2018-02-21T17:09:18.116Z,82.97
2018-02-21T17:10:49.147Z,82.79
2018-02-21T17:12:12.371Z,82.58
2018-02-21T17:13:39.676Z,82.41
2018-02-21T17:15:06.809Z,82.62
2018-02-21T17:16:37.408Z,82.64
2018-02-21T17:18:04.412Z,82.66
2018-02-21T17:19:27.580Z,82.63
2018-02-21T17:20:58.962Z,82.56
2018-02-21T17:22:22.067Z,82.77
2018-02-21T17:23:48.777Z,82.88
2018-02-21T17:26:46.921Z,83.36
2018-02-21T17:28:10.015Z,83.36
2018-02-21T17:29:36.444Z,83.24
2018-02-21T17:31:03.399Z,83.31
2018-02-21T17:32:34.387Z,83.37
2018-02-21T17:34:01.532Z,83.39
2018-02-21T17:35:24.844Z,83.13
2018-02-21T17:36:51.466Z,83.29
2018-02-21T17:38:18.584Z,83.48
2018-02-21T17:39:45.663Z,83.36
2018-02-21T17:41:12.246Z,83.55
2018-02-21T17:42:43.132Z,83.69
2018-02-21T17:44:06.279Z,83.78
2018-02-21T17:45:37.372Z,83.62
2018-02-21T17:47:04.464Z,83.48
2018-02-21T17:48:27.301Z,83.26
2018-02-21T17:49:58.276Z,83.11
2018-02-21T17:51:21.691Z,83.07
2018-02-21T17:52:52.296Z,83.30
2018-02-21T17:54:19.547Z,83.43
2018-02-21T17:55:42.568Z,83.00
2018-02-21T17:57:13.641Z,83.10
2018-02-21T17:58:36.375Z,83.29
2018-02-21T18:00:02.937Z,82.94
2018-02-21T18:01:29.923Z,82.98
2018-02-21T18:03:00.549Z,83.24
2018-02-21T18:04:27.767Z,83.11
2018-02-21T18:05:50.532Z,83.01
2018-02-21T18:07:17.756Z,83.12
2018-02-21T18:08:44.962Z,83.03
2018-02-21T18:10:16.174Z,82.78
2018-02-21T18:11:43.228Z,83.22
2018-02-21T18:13:06.354Z,83.15
2018-02-21T18:14:33.387Z,83.04
2018-02-21T18:16:00.684Z,82.89
2018-02-21T18:17:27.611Z,82.93
2018-02-21T18:18:58.794Z,82.82
2018-02-21T18:20:25.631Z,82.96
2018-02-21T18:21:52.780Z,82.90
2018-02-21T18:23:15.987Z,82.99
2018-02-21T18:24:47.155Z,83.02
2018-02-21T18:26:14.382Z,83.17
2018-02-21T18:27:41.492Z,82.80
2018-02-21T18:29:08.587Z,82.23
2018-02-21T18:30:35.077Z,82.10
2018-02-21T18:32:01.982Z,82.45
2018-02-21T18:33:29.213Z,82.60
2018-02-21T18:34:56.239Z,82.18
2018-02-21T18:36:19.290Z,82.17
2018-02-21T18:37:50.442Z,82.23
2018-02-21T18:39:13.750Z,82.32
2018-02-21T18:40:40.936Z,82.42
2018-02-21T18:42:07.834Z,82.17